Time;durP1;ratioP1;P1;durP2;ratioP2;P2;SDS_P1;SDS_P2;PMS_P1;PMS_P2;Temp;Humidity;BMP_temperature;BMP_pressure;BME280_temperature;BME280_humidity;BME280_pressure;Samples;Min_cycle;Max_cycle;Signal;HPM_P1;HPM_P2
2022/03/31 00:00:20;;;;;;;10.48;4.72;;;12.30;99.90;;;;;;5048659;28;20117;-70
2022/03/31 00:02:46;;;;;;;11.60;5.43;;;12.30;99.90;;;;;;5049346;28;20033;-70
2022/03/31 00:05:13;;;;;;;12.23;5.25;;;12.30;99.90;;;;;;5054319;28;20102;-70
2022/03/31 00:07:52;;;;;;;9.50;5.28;;;12.30;99.90;;;;;;5038134;28;20064;-70
2022/03/31 00:10:20;;;;;;;11.93;4.88;;;12.30;99.90;;;;;;5052663;28;20091;-71
2022/03/31 00:12:46;;;;;;;7.72;4.32;;;12.40;99.90;;;;;;5057076;28;20043;-71
2022/03/31 00:15:12;;;;;;;11.20;5.13;;;12.40;99.90;;;;;;5046491;28;20044;-72
2022/03/31 00:17:37;;;;;;;10.80;4.55;;;12.40;99.90;;;;;;5055980;28;20079;-72
2022/03/31 00:20:04;;;;;;;9.70;5.25;;;12.40;99.90;;;;;;5054713;28;20040;-72
2022/03/31 00:22:30;;;;;;;11.02;5.13;;;12.40;99.90;;;;;;5053747;28;20033;-72
2022/03/31 00:24:55;;;;;;;11.10;5.30;;;12.40;99.90;;;;;;5050160;28;20036;-72
2022/03/31 00:27:21;;;;;;;11.20;4.97;;;12.40;99.90;;;;;;5051826;28;20039;-72
2022/03/31 00:29:47;;;;;;;8.35;5.10;;;12.50;99.90;;;;;;5058961;28;20144;-72
2022/03/31 00:32:13;;;;;;;9.85;4.55;;;12.50;99.90;;;;;;5046979;28;20028;-72
2022/03/31 00:34:39;;;;;;;11.15;4.68;;;12.50;99.90;;;;;;5050701;28;20040;-72
2022/03/31 00:37:05;;;;;;;12.13;4.97;;;12.50;99.90;;;;;;5048151;28;20045;-72
2022/03/31 00:39:34;;;;;;;11.82;4.82;;;12.50;99.90;;;;;;5049695;28;20157;-72
2022/03/31 00:42:01;;;;;;;11.07;5.03;;;12.50;99.90;;;;;;5056842;28;20049;-72
2022/03/31 00:44:27;;;;;;;10.13;4.85;;;12.50;99.90;;;;;;5049303;28;20036;-72
2022/03/31 00:46:55;;;;;;;10.35;4.95;;;12.40;99.90;;;;;;5053032;28;20036;-72
2022/03/31 00:49:22;;;;;;;8.88;4.45;;;12.30;99.90;;;;;;5048061;28;20028;-72
2022/03/31 00:51:50;;;;;;;7.53;4.38;;;12.30;99.90;;;;;;5053263;28;20029;-71
2022/03/31 00:54:18;;;;;;;9.27;4.72;;;12.20;99.90;;;;;;5049137;28;20048;-72
2022/03/31 00:56:44;;;;;;;14.23;4.90;;;12.20;99.90;;;;;;5057735;28;20090;-71
2022/03/31 00:59:13;;;;;;;9.77;4.35;;;12.20;99.90;;;;;;5054878;28;20032;-71
2022/03/31 01:01:39;;;;;;;9.00;4.55;;;12.30;99.90;;;;;;5050247;28;20043;-71
2022/03/31 01:04:09;;;;;;;12.50;5.13;;;12.30;99.90;;;;;;5056574;28;20582;-71
2022/03/31 01:06:35;;;;;;;7.93;4.75;;;12.40;99.90;;;;;;5061582;28;20037;-72
2022/03/31 01:09:02;;;;;;;11.25;4.40;;;12.50;99.90;;;;;;5033063;28;20493;-72
2022/03/31 01:11:32;;;;;;;10.00;4.90;;;12.50;99.90;;;;;;5050192;28;20040;-71
2022/03/31 01:13:58;;;;;;;13.43;4.45;;;12.60;99.90;;;;;;5055433;28;20048;-71
2022/03/31 01:16:24;;;;;;;8.63;4.53;;;12.50;99.90;;;;;;5051324;28;20040;-71
2022/03/31 01:18:51;;;;;;;5.53;4.38;;;12.40;99.90;;;;;;5050065;28;20067;-71
2022/03/31 01:21:17;;;;;;;13.05;3.92;;;12.30;99.90;;;;;;5048362;28;20418;-71
2022/03/31 01:23:44;;;;;;;10.15;4.70;;;12.20;99.90;;;;;;5049001;28;20041;-71
2022/03/31 01:26:10;;;;;;;9.85;4.82;;;12.10;99.90;;;;;;5052598;28;20066;-71
2022/03/31 01:28:43;;;;;;;7.32;4.32;;;12.00;99.90;;;;;;5051070;28;20119;-71
2022/03/31 01:31:10;;;;;;;7.45;4.68;;;12.10;99.90;;;;;;5051347;28;20040;-71
2022/03/31 01:33:37;;;;;;;10.32;4.75;;;12.00;99.90;;;;;;5055273;28;20075;-71
2022/03/31 01:36:05;;;;;;;9.35;4.45;;;12.00;99.90;;;;;;5033101;28;20065;-71
2022/03/31 01:38:31;;;;;;;10.02;5.07;;;12.00;99.90;;;;;;5052633;28;20540;-71
2022/03/31 01:40:58;;;;;;;13.75;5.22;;;11.90;99.90;;;;;;5053230;28;20048;-71
2022/03/31 01:43:23;;;;;;;10.27;4.60;;;11.90;99.90;;;;;;5040420;28;20067;-71
2022/03/31 01:45:49;;;;;;;7.00;4.53;;;11.80;99.90;;;;;;5055374;28;20077;-71
2022/03/31 01:48:18;;;;;;;9.35;4.88;;;11.80;99.90;;;;;;5051345;28;20568;-71
2022/03/31 01:50:44;;;;;;;8.38;4.70;;;11.80;99.90;;;;;;5051574;28;20024;-71
2022/03/31 01:53:10;;;;;;;8.43;4.05;;;11.80;99.90;;;;;;5051026;28;20059;-71
2022/03/31 01:55:36;;;;;;;9.55;5.05;;;11.80;99.90;;;;;;5049155;28;20059;-71
2022/03/31 01:58:04;;;;;;;7.32;4.40;;;11.80;99.90;;;;;;5056862;28;20043;-71
2022/03/31 02:00:29;;;;;;;9.27;4.80;;;11.80;99.90;;;;;;5054101;28;20054;-71
2022/03/31 02:02:55;;;;;;;9.30;4.85;;;11.80;99.90;;;;;;5048107;28;20037;-71
2022/03/31 02:05:21;;;;;;;13.23;4.93;;;11.80;99.90;;;;;;5045328;28;20033;-71
2022/03/31 02:07:47;;;;;;;10.27;4.50;;;11.70;99.90;;;;;;5046620;28;20032;-71
2022/03/31 02:10:14;;;;;;;7.85;4.13;;;11.50;99.90;;;;;;5047347;28;20134;-71
2022/03/31 02:12:41;;;;;;;14.95;5.05;;;11.50;99.90;;;;;;5048764;28;20036;-71
2022/03/31 02:15:07;;;;;;;11.70;4.90;;;11.50;99.90;;;;;;5046209;28;20052;-72
2022/03/31 02:17:33;;;;;;;10.75;4.47;;;11.50;99.90;;;;;;5045933;28;20056;-71
2022/03/31 02:19:59;;;;;;;10.90;4.72;;;11.50;99.90;;;;;;5047169;28;20529;-71
2022/03/31 02:22:24;;;;;;;11.02;4.55;;;11.60;99.90;;;;;;5050151;28;20032;-71
2022/03/31 02:24:50;;;;;;;11.20;4.22;;;11.60;99.90;;;;;;5050422;28;20556;-71
2022/03/31 02:27:15;;;;;;;9.95;4.68;;;11.70;99.90;;;;;;5045864;28;20076;-71
2022/03/31 02:29:41;;;;;;;8.70;4.43;;;11.80;99.90;;;;;;5042107;28;20429;-71
2022/03/31 02:32:07;;;;;;;10.25;4.43;;;11.70;99.90;;;;;;5044002;28;20695;-72
2022/03/31 02:34:34;;;;;;;10.55;5.07;;;11.70;99.90;;;;;;5045163;28;20052;-71
2022/03/31 02:37:00;;;;;;;12.32;4.55;;;11.70;99.90;;;;;;5052845;28;20029;-71
2022/03/31 02:39:28;;;;;;;8.82;4.80;;;11.70;99.90;;;;;;5050512;28;20060;-71
2022/03/31 02:41:54;;;;;;;8.50;4.53;;;11.70;99.90;;;;;;5051456;28;20456;-71
2022/03/31 02:44:20;;;;;;;11.60;4.70;;;11.70;99.90;;;;;;5050357;28;20055;-71
2022/03/31 02:46:46;;;;;;;13.25;4.63;;;11.80;99.90;;;;;;5045965;28;20032;-71
2022/03/31 02:49:12;;;;;;;11.80;4.97;;;11.90;99.90;;;;;;5052830;28;20075;-71
2022/03/31 02:51:38;;;;;;;9.20;4.07;;;11.90;99.90;;;;;;5037471;28;20068;-71
2022/03/31 02:56:48;;;;;;;12.80;4.75;;;11.80;99.90;;;;;;5051141;28;20131;-71
2022/03/31 02:59:13;;;;;;;10.90;4.90;;;11.70;99.90;;;;;;5052135;28;20463;-71
2022/03/31 03:01:42;;;;;;;11.15;4.88;;;11.60;99.90;;;;;;5052048;28;20048;-71
2022/03/31 03:04:08;;;;;;;10.50;4.50;;;11.60;99.90;;;;;;5055934;28;20040;-71
2022/03/31 03:06:33;;;;;;;15.32;4.80;;;11.60;99.90;;;;;;5060396;28;20064;-71
2022/03/31 03:08:59;;;;;;;9.02;4.05;;;11.60;99.90;;;;;;5050707;28;20659;-71
2022/03/31 03:11:25;;;;;;;7.95;4.22;;;11.70;99.90;;;;;;5050550;28;20156;-71
2022/03/31 03:13:51;;;;;;;10.60;4.15;;;11.80;99.90;;;;;;5033660;28;20071;-71
2022/03/31 03:16:17;;;;;;;9.90;4.95;;;11.90;99.90;;;;;;5038635;28;20070;-71
2022/03/31 03:18:42;;;;;;;16.45;5.85;;;11.90;99.90;;;;;;5054664;28;20032;-71
2022/03/31 03:21:08;;;;;;;7.43;5.15;;;11.90;99.90;;;;;;5049609;28;20548;-71
2022/03/31 03:23:35;;;;;;;10.55;8.15;;;11.90;99.90;;;;;;5052506;28;20076;-71
2022/03/31 03:26:02;;;;;;;11.70;6.40;;;11.80;99.90;;;;;;5051284;28;20032;-71
2022/03/31 03:28:29;;;;;;;12.18;7.50;;;11.80;99.90;;;;;;5049848;28;20047;-71
2022/03/31 03:30:56;;;;;;;14.85;4.97;;;11.70;99.90;;;;;;5054465;28;20028;-71
2022/03/31 03:33:21;;;;;;;11.73;4.88;;;11.70;99.90;;;;;;5058908;28;20044;-71
2022/03/31 03:35:47;;;;;;;13.02;4.47;;;11.70;99.90;;;;;;5038200;28;20052;-71
2022/03/31 03:38:16;;;;;;;14.35;4.80;;;11.60;99.90;;;;;;5035302;28;20692;-70
2022/03/31 03:40:42;;;;;;;18.25;5.32;;;11.50;99.90;;;;;;5057035;28;20052;-71
2022/03/31 03:43:09;;;;;;;12.40;5.18;;;11.60;99.90;;;;;;5056943;28;20043;-71
2022/03/31 03:45:38;;;;;;;12.43;5.35;;;11.60;99.90;;;;;;5058011;28;20056;-71
2022/03/31 03:48:06;;;;;;;9.82;5.10;;;11.60;99.90;;;;;;5055008;28;20040;-71
2022/03/31 03:50:33;;;;;;;16.50;6.50;;;11.70;99.90;;;;;;5053122;28;20067;-71
2022/03/31 03:53:01;;;;;;;10.63;4.82;;;11.80;99.90;;;;;;5052594;28;20040;-71
2022/03/31 03:55:27;;;;;;;13.98;5.65;;;11.70;99.90;;;;;;5054732;28;20090;-71
2022/03/31 03:57:53;;;;;;;12.77;4.90;;;11.70;99.90;;;;;;5053242;28;20515;-71
2022/03/31 04:00:19;;;;;;;10.82;5.25;;;11.70;99.90;;;;;;5046237;28;20052;-71
2022/03/31 04:02:44;;;;;;;10.63;4.80;;;11.70;99.90;;;;;;5053084;28;20063;-71
2022/03/31 04:05:10;;;;;;;10.15;4.28;;;11.60;99.90;;;;;;5055204;28;20517;-71
2022/03/31 04:07:36;;;;;;;7.78;4.47;;;11.60;99.90;;;;;;5061097;28;20045;-71
2022/03/31 04:10:02;;;;;;;11.63;4.50;;;11.50;99.90;;;;;;5041232;28;20101;-71
2022/03/31 04:12:27;;;;;;;20.58;14.20;;;11.50;99.90;;;;;;5055178;28;20045;-71
2022/03/31 04:14:53;;;;;;;45.05;35.60;;;11.60;99.90;;;;;;5044825;28;20766;-71
2022/03/31 04:17:18;;;;;;;37.10;27.05;;;11.70;99.90;;;;;;5034770;28;20068;-70
2022/03/31 04:19:44;;;;;;;42.10;33.88;;;11.70;99.90;;;;;;5052224;28;20699;-70
2022/03/31 04:22:10;;;;;;;45.33;40.50;;;11.70;99.90;;;;;;5058902;28;20572;-70
2022/03/31 04:24:36;;;;;;;44.35;37.78;;;11.80;99.90;;;;;;5053540;28;20467;-70
2022/03/31 04:27:02;;;;;;;14.43;6.75;;;11.80;99.90;;;;;;5058411;28;20102;-70
2022/03/31 04:29:27;;;;;;;12.15;4.68;;;11.70;99.90;;;;;;5051516;28;20109;-70
2022/03/31 04:31:53;;;;;;;12.05;5.28;;;11.60;99.90;;;;;;5052674;28;20109;-69
2022/03/31 04:34:19;;;;;;;9.57;4.85;;;11.50;99.90;;;;;;5053832;28;20064;-69
2022/03/31 04:36:46;;;;;;;12.25;5.18;;;11.50;99.90;;;;;;5054252;28;20303;-69
2022/03/31 04:39:13;;;;;;;9.85;5.65;;;11.40;99.90;;;;;;5053854;28;20040;-71
2022/03/31 04:41:42;;;;;;;10.35;4.55;;;11.20;99.90;;;;;;5045898;28;20061;-71
2022/03/31 04:44:08;;;;;;;11.57;4.88;;;11.20;99.90;;;;;;5056521;28;20091;-72
2022/03/31 04:46:35;;;;;;;10.30;4.93;;;11.10;99.90;;;;;;5049136;28;20501;-71
2022/03/31 04:49:01;;;;;;;8.20;4.50;;;11.10;99.90;;;;;;5050448;28;20049;-71
2022/03/31 04:51:27;;;;;;;11.30;4.50;;;11.10;99.90;;;;;;5050154;28;20037;-70
2022/03/31 04:53:53;;;;;;;7.55;4.63;;;11.10;99.90;;;;;;5050452;28;20052;-70
2022/03/31 04:56:18;;;;;;;11.23;4.75;;;11.10;99.90;;;;;;5056638;28;20075;-70
2022/03/31 04:58:44;;;;;;;7.55;5.22;;;11.10;99.90;;;;;;5051981;28;20043;-70
2022/03/31 05:01:11;;;;;;;12.43;5.70;;;11.10;99.90;;;;;;5052255;28;20029;-70
2022/03/31 05:03:37;;;;;;;11.35;6.43;;;11.10;99.90;;;;;;5057050;28;20021;-70
2022/03/31 05:06:05;;;;;;;9.30;5.68;;;11.10;99.90;;;;;;5047045;28;21095;-70
2022/03/31 05:08:30;;;;;;;16.27;6.05;;;11.10;99.90;;;;;;5044364;28;20052;-70
2022/03/31 05:10:56;;;;;;;10.27;5.30;;;11.10;99.90;;;;;;5052632;28;20048;-70
2022/03/31 05:13:22;;;;;;;13.50;5.88;;;;;;;;;;5050013;28;20670;-70
2022/03/31 05:15:48;;;;;;;11.98;7.25;;;11.20;99.90;;;;;;5053656;28;20106;-70
2022/03/31 05:18:14;;;;;;;10.70;6.22;;;11.30;99.90;;;;;;5053355;28;20167;-70
2022/03/31 05:20:40;;;;;;;17.00;7.85;;;11.20;99.90;;;;;;5054613;28;24421;-70
2022/03/31 05:23:06;;;;;;;15.77;6.90;;;11.20;99.90;;;;;;5055283;28;20047;-70
2022/03/31 05:25:31;;;;;;;12.05;6.68;;;11.40;99.90;;;;;;5056282;28;20037;-70
2022/03/31 05:28:00;;;;;;;15.18;8.75;;;11.50;99.90;;;;;;5052854;28;20040;-70
2022/03/31 05:30:26;;;;;;;22.75;11.70;;;11.60;99.90;;;;;;5054138;28;20048;-69
2022/03/31 05:32:53;;;;;;;29.10;16.23;;;11.60;99.90;;;;;;5036405;28;20151;-70
2022/03/31 05:35:19;;;;;;;32.55;20.70;;;11.70;99.90;;;;;;5056562;28;20040;-70
2022/03/31 05:37:46;;;;;;;27.58;16.40;;;11.70;99.90;;;;;;5059446;28;20044;-70
2022/03/31 05:40:13;;;;;;;21.00;13.13;;;11.80;99.90;;;;;;5054322;28;20048;-70
2022/03/31 05:42:39;;;;;;;17.70;11.75;;;11.80;99.90;;;;;;5054647;28;20060;-70
2022/03/31 05:45:07;;;;;;;19.02;10.20;;;11.80;99.90;;;;;;5057820;28;20765;-70
2022/03/31 05:47:32;;;;;;;17.25;9.38;;;11.80;99.90;;;;;;5056404;28;20037;-71
2022/03/31 05:49:58;;;;;;;20.77;9.52;;;11.80;99.90;;;;;;5042913;28;20559;-70
2022/03/31 05:52:24;;;;;;;17.70;8.73;;;11.80;99.90;;;;;;5057036;28;20149;-70
2022/03/31 05:54:50;;;;;;;13.52;8.15;;;11.70;99.90;;;;;;5054788;28;20048;-70
2022/03/31 05:57:16;;;;;;;14.02;7.53;;;11.70;99.90;;;;;;5057629;28;20032;-70
2022/03/31 05:59:42;;;;;;;14.68;8.10;;;11.70;99.90;;;;;;5051360;28;20122;-70
2022/03/31 06:02:09;;;;;;;12.00;7.05;;;11.80;99.90;;;;;;5050890;28;20043;-70
2022/03/31 06:04:35;;;;;;;19.67;7.47;;;11.60;99.90;;;;;;5063060;28;20045;-71
2022/03/31 06:07:01;;;;;;;18.45;8.07;;;11.60;99.90;;;;;;5049776;28;20037;-70
2022/03/31 06:09:27;;;;;;;10.10;6.45;;;11.60;99.90;;;;;;5056292;28;20125;-71
2022/03/31 06:11:52;;;;;;;13.95;7.13;;;11.70;99.90;;;;;;5059835;28;20029;-70
2022/03/31 06:14:18;;;;;;;13.10;6.85;;;11.80;99.90;;;;;;5055912;28;20056;-71
2022/03/31 06:16:44;;;;;;;14.95;7.28;;;11.80;99.90;;;;;;5049426;28;20111;-71
2022/03/31 06:19:09;;;;;;;15.63;7.10;;;11.70;99.90;;;;;;5057313;28;20190;-71
2022/03/31 06:21:36;;;;;;;18.08;7.40;;;11.80;99.90;;;;;;5056692;28;20102;-70
2022/03/31 06:24:03;;;;;;;16.50;8.50;;;11.80;99.90;;;;;;5049751;28;20064;-71
2022/03/31 06:26:30;;;;;;;15.02;7.90;;;11.90;99.90;;;;;;5053903;28;20072;-70
2022/03/31 06:28:56;;;;;;;18.00;8.25;;;11.90;99.90;;;;;;5056182;28;20500;-71
2022/03/31 06:31:23;;;;;;;12.45;7.50;;;11.90;99.90;;;;;;5038708;28;20148;-70
2022/03/31 06:33:49;;;;;;;17.42;8.02;;;11.90;99.90;;;;;;5053932;28;20029;-71
2022/03/31 06:36:15;;;;;;;10.52;8.38;;;11.90;99.90;;;;;;5054102;28;20366;-71
2022/03/31 06:38:41;;;;;;;14.63;8.15;;;11.90;99.90;;;;;;5055401;28;20512;-70
2022/03/31 06:41:06;;;;;;;16.23;7.82;;;11.90;99.90;;;;;;5044930;28;20037;-71
2022/03/31 06:43:37;;;;;;;13.50;7.90;;;11.90;99.90;;;;;;5051380;28;20489;-71
2022/03/31 06:46:03;;;;;;;12.38;8.07;;;11.90;99.90;;;;;;5056032;28;20031;-70
2022/03/31 06:48:31;;;;;;;16.58;8.38;;;11.90;99.90;;;;;;5047906;28;20040;-71
2022/03/31 06:50:58;;;;;;;12.32;7.25;;;11.90;99.90;;;;;;5055529;28;20045;-70
2022/03/31 06:53:25;;;;;;;15.05;7.80;;;11.90;99.90;;;;;;5052150;28;20106;-70
2022/03/31 06:55:50;;;;;;;14.90;7.30;;;11.90;99.90;;;;;;5057064;28;20102;-71
2022/03/31 06:58:16;;;;;;;15.57;7.30;;;11.80;99.90;;;;;;5053216;28;20032;-70
2022/03/31 07:00:44;;;;;;;17.85;7.65;;;11.90;99.90;;;;;;5050829;28;20122;-70
2022/03/31 07:03:09;;;;;;;18.25;7.40;;;11.90;99.90;;;;;;5060178;28;20032;-70
2022/03/31 07:05:36;;;;;;;19.40;8.20;;;11.90;99.90;;;;;;5051548;28;20032;-70
2022/03/31 07:08:03;;;;;;;15.65;8.13;;;11.90;99.90;;;;;;5055949;28;20037;-70
2022/03/31 07:10:29;;;;;;;15.35;8.60;;;11.90;99.90;;;;;;5041535;28;20041;-70
2022/03/31 07:12:55;;;;;;;17.67;8.48;;;11.90;99.90;;;;;;5054153;28;20049;-70
2022/03/31 07:15:20;;;;;;;15.38;7.93;;;11.90;99.90;;;;;;5057757;28;20498;-71
2022/03/31 07:17:46;;;;;;;16.65;8.48;;;11.90;99.90;;;;;;5056832;28;20504;-70
2022/03/31 07:20:12;;;;;;;15.68;8.13;;;12.00;99.90;;;;;;5054228;28;20032;-71
2022/03/31 07:22:45;;;;;;;12.68;7.50;;;12.00;99.90;;;;;;5053145;28;20538;-70
2022/03/31 07:25:11;;;;;;;20.27;7.93;;;12.00;99.90;;;;;;5054541;28;20033;-71
2022/03/31 07:27:37;;;;;;;13.23;8.30;;;12.00;99.90;;;;;;5057190;28;20152;-70
2022/03/31 07:30:03;;;;;;;11.15;7.95;;;12.00;99.90;;;;;;5055033;28;20635;-71
2022/03/31 07:32:29;;;;;;;16.23;8.48;;;12.00;99.90;;;;;;5058280;28;20083;-71
2022/03/31 07:34:55;;;;;;;14.38;7.97;;;12.00;99.90;;;;;;5061264;28;20052;-70
2022/03/31 07:37:21;;;;;;;13.10;8.93;;;12.10;99.90;;;;;;5045942;28;20410;-71
2022/03/31 07:39:47;;;;;;;15.55;8.70;;;12.10;99.90;;;;;;5046253;28;20064;-71
2022/03/31 07:42:13;;;;;;;15.10;8.88;;;12.00;99.90;;;;;;5053544;28;20046;-71
2022/03/31 07:44:39;;;;;;;12.02;8.05;;;12.00;99.90;;;;;;5051903;28;20028;-71
2022/03/31 07:47:06;;;;;;;18.17;9.25;;;12.00;99.90;;;;;;5052007;28;20047;-70
2022/03/31 07:49:31;;;;;;;16.88;9.20;;;12.00;99.90;;;;;;5050409;28;20131;-71
2022/03/31 07:51:57;;;;;;;22.02;9.40;;;12.00;99.90;;;;;;5064573;28;20115;-71
2022/03/31 07:54:23;;;;;;;14.90;9.45;;;12.00;99.90;;;;;;5041728;28;20530;-71
2022/03/31 07:56:50;;;;;;;14.73;8.90;;;12.00;99.90;;;;;;5055871;28;20444;-70
2022/03/31 07:59:21;;;;;;;13.85;8.55;;;12.10;99.90;;;;;;5058247;28;20025;-71
2022/03/31 08:01:47;;;;;;;19.25;8.73;;;12.10;99.90;;;;;;5055232;28;20044;-71
2022/03/31 08:04:13;;;;;;;14.02;9.52;;;12.10;99.90;;;;;;5037148;28;20780;-71
2022/03/31 08:06:40;;;;;;;18.35;10.02;;;12.10;99.90;;;;;;5055066;28;20049;-71
2022/03/31 08:09:06;;;;;;;14.38;9.73;;;12.20;99.90;;;;;;5052668;28;20044;-71
2022/03/31 08:11:32;;;;;;;16.52;9.25;;;12.20;99.90;;;;;;5055630;28;20682;-71
2022/03/31 08:13:58;;;;;;;20.83;8.65;;;12.30;99.90;;;;;;5049806;28;20182;-71
2022/03/31 08:16:25;;;;;;;14.57;9.55;;;12.30;99.90;;;;;;5062057;28;21208;-71
2022/03/31 08:18:50;;;;;;;16.35;9.27;;;12.30;99.90;;;;;;5052372;28;20559;-71
2022/03/31 08:21:16;;;;;;;15.57;8.98;;;12.30;99.90;;;;;;5057988;28;20045;-71
2022/03/31 08:23:42;;;;;;;17.33;9.32;;;12.30;99.90;;;;;;5048103;28;20036;-71
2022/03/31 08:26:07;;;;;;;17.40;9.18;;;12.40;99.90;;;;;;5054813;28;20044;-71
2022/03/31 08:28:33;;;;;;;24.50;10.30;;;12.40;99.90;;;;;;5061447;28;20040;-71
2022/03/31 08:30:59;;;;;;;18.90;8.98;;;12.40;99.90;;;;;;5064251;28;20588;-71
2022/03/31 08:33:25;;;;;;;15.68;9.38;;;12.40;99.90;;;;;;5058105;28;20080;-71
2022/03/31 08:35:51;;;;;;;15.85;10.57;;;12.40;99.90;;;;;;5031805;28;20093;-70
2022/03/31 08:38:16;;;;;;;18.88;10.45;;;12.40;99.90;;;;;;5056691;28;20033;-71
2022/03/31 08:40:43;;;;;;;16.25;9.60;;;12.40;99.90;;;;;;5041231;28;20052;-71
2022/03/31 08:43:09;;;;;;;19.63;8.82;;;12.50;99.90;;;;;;5054297;28;20128;-71
2022/03/31 08:45:37;;;;;;;12.40;9.35;;;12.40;99.90;;;;;;5053338;28;20124;-71
2022/03/31 08:48:04;;;;;;;15.48;9.27;;;12.40;99.90;;;;;;5047641;28;20031;-71
2022/03/31 08:50:34;;;;;;;15.50;9.73;;;12.40;99.90;;;;;;5059145;28;20043;-71
2022/03/31 08:53:00;;;;;;;16.48;9.98;;;12.30;99.90;;;;;;5056538;28;20655;-71
2022/03/31 08:55:25;;;;;;;14.38;9.55;;;12.20;99.90;;;;;;5053835;28;20061;-71
2022/03/31 08:57:54;;;;;;;14.00;9.57;;;12.20;99.90;;;;;;5020209;28;20079;-71
2022/03/31 09:00:21;;;;;;;16.83;9.05;;;12.20;99.90;;;;;;5055551;28;20056;-71
2022/03/31 09:03:04;;;;;;;13.75;10.27;;;12.10;99.90;;;;;;5037740;28;20071;-72
2022/03/31 09:05:52;;;;;;;18.15;10.88;;;12.00;99.90;;;;;;5057076;28;20118;-71
2022/03/31 09:08:18;;;;;;;17.17;9.95;;;12.00;99.90;;;;;;5030332;28;20032;-71
2022/03/31 09:10:52;;;;;;;16.13;10.35;;;12.10;99.90;;;;;;5044999;28;20044;-71
2022/03/31 09:13:35;;;;;;;18.80;10.65;;;12.20;99.90;;;;;;5048143;28;20406;-71
2022/03/31 09:16:03;;;;;;;15.82;9.60;;;12.20;99.90;;;;;;5057476;28;20043;-71
2022/03/31 09:18:33;;;;;;;14.70;9.50;;;12.20;99.90;;;;;;5052880;28;20696;-71
2022/03/31 09:21:01;;;;;;;14.48;9.93;;;12.10;99.90;;;;;;5054371;28;20052;-71
2022/03/31 09:23:29;;;;;;;22.73;12.20;;;12.00;99.90;;;;;;5054327;28;20559;-71
2022/03/31 09:26:08;;;;;;;16.83;11.18;;;12.00;99.90;;;;;;5052857;28;20037;-71
2022/03/31 09:28:35;;;;;;;18.70;10.23;;;12.00;99.90;;;;;;5053676;28;20401;-71
2022/03/31 09:31:01;;;;;;;21.77;10.75;;;11.90;99.90;;;;;;5052247;28;20127;-70
2022/03/31 09:33:47;;;;;;;15.40;10.45;;;11.80;99.90;;;;;;5060759;28;20053;-71
2022/03/31 09:36:21;;;;;;;15.68;10.07;;;11.80;99.90;;;;;;5058970;28;20036;-71
2022/03/31 09:39:09;;;;;;;16.25;10.35;;;11.80;99.90;;;;;;5057587;28;20037;-70
2022/03/31 09:41:39;;;;;;;17.92;10.63;;;11.90;99.90;;;;;;5055475;28;20553;-71
2022/03/31 09:44:13;;;;;;;15.50;9.65;;;12.00;99.90;;;;;;5057608;28;20110;-71
2022/03/31 09:46:40;;;;;;;15.57;10.43;;;12.10;99.90;;;;;;5049798;28;20174;-70
2022/03/31 09:49:17;;;;;;;19.42;10.77;;;12.10;99.90;;;;;;5054944;28;20048;-71
2022/03/31 09:51:48;;;;;;;15.50;10.55;;;12.10;99.90;;;;;;5053474;28;20043;-71
2022/03/31 09:54:15;;;;;;;17.50;10.75;;;12.10;99.90;;;;;;5059216;28;20033;-71
2022/03/31 09:56:41;;;;;;;15.70;10.10;;;12.10;99.90;;;;;;5049700;28;20047;-71
2022/03/31 09:59:12;;;;;;;11.43;9.90;;;12.00;99.90;;;;;;5038380;28;20035;-71
2022/03/31 10:01:39;;;;;;;14.82;9.90;;;12.10;99.90;;;;;;5057819;28;20068;-71
2022/03/31 10:04:11;;;;;;;15.60;10.43;;;12.10;99.90;;;;;;5051557;28;20031;-71
2022/03/31 10:06:38;;;;;;;14.52;11.10;;;12.00;99.90;;;;;;5049047;28;20127;-71
2022/03/31 10:09:05;;;;;;;13.90;10.85;;;11.90;99.90;;;;;;5057655;28;20048;-71
2022/03/31 10:11:35;;;;;;;18.83;10.32;;;12.00;99.90;;;;;;5056199;28;20048;-71
2022/03/31 10:14:19;;;;;;;18.40;10.13;;;11.90;99.90;;;;;;5053531;28;20044;-71
2022/03/31 10:16:50;;;;;;;19.05;9.75;;;11.90;99.90;;;;;;5052826;28;20041;-71
2022/03/31 10:19:48;;;;;;;15.38;10.07;;;12.00;99.90;;;;;;5055780;28;20040;-71
2022/03/31 10:25:03;;;;;;;15.30;9.23;;;12.00;99.90;;;;;;5050953;28;20590;-70
2022/03/31 10:27:37;;;;;;;16.60;9.95;;;12.00;99.90;;;;;;5055329;28;20437;-70
2022/03/31 10:30:12;;;;;;;18.33;10.13;;;12.10;99.90;;;;;;5054522;28;20560;-70
2022/03/31 10:32:54;;;;;;;17.13;10.88;;;12.10;99.90;;;;;;5037739;28;20485;-71
2022/03/31 10:35:31;;;;;;;17.15;11.05;;;12.20;99.90;;;;;;5033567;28;20075;-71
2022/03/31 10:38:09;;;;;;;13.52;9.57;;;12.20;99.90;;;;;;5059409;28;20032;-70
2022/03/31 10:40:38;;;;;;;13.88;9.38;;;12.20;99.90;;;;;;5056941;28;20028;-70
2022/03/31 10:43:05;;;;;;;16.60;9.98;;;12.10;99.90;;;;;;5052458;28;20052;-70
2022/03/31 10:45:43;;;;;;;19.45;9.40;;;12.00;99.90;;;;;;5057613;28;20409;-70
2022/03/31 10:48:20;;;;;;;14.25;9.43;;;12.00;99.90;;;;;;5040110;28;20589;-70
2022/03/31 10:51:06;;;;;;;14.07;9.10;;;12.00;99.90;;;;;;5049428;28;20115;-70
2022/03/31 10:53:39;;;;;;;14.23;9.80;;;11.90;99.90;;;;;;5052734;28;20057;-70
2022/03/31 10:56:24;;;;;;;23.88;9.48;;;12.00;99.90;;;;;;5047578;28;20049;-70
2022/03/31 10:58:52;;;;;;;15.68;9.57;;;12.00;99.90;;;;;;5043793;28;20795;-70
2022/03/31 11:01:19;;;;;;;15.07;8.35;;;12.10;99.90;;;;;;5049370;28;20029;-70
2022/03/31 11:03:50;;;;;;;13.38;8.93;;;12.20;99.90;;;;;;5058030;28;20068;-70
2022/03/31 11:06:18;;;;;;;15.57;9.38;;;12.20;99.90;;;;;;5060461;28;20044;-70
2022/03/31 11:08:46;;;;;;;12.45;8.57;;;12.30;99.90;;;;;;5059399;28;20074;-71
2022/03/31 11:11:21;;;;;;;12.80;9.10;;;12.40;99.90;;;;;;5046670;28;20056;-70
2022/03/31 11:13:47;;;;;;;14.98;9.35;;;12.40;99.90;;;;;;5035656;28;20048;-70
2022/03/31 11:16:15;;;;;;;13.65;8.65;;;12.30;99.90;;;;;;5050437;28;20492;-70
2022/03/31 11:18:42;;;;;;;14.18;8.60;;;12.30;99.90;;;;;;5062032;28;20039;-70
2022/03/31 11:21:08;;;;;;;14.32;8.48;;;12.30;99.90;;;;;;5051865;28;20653;-70
2022/03/31 11:23:34;;;;;;;13.07;8.40;;;12.30;99.90;;;;;;5052962;28;20028;-70
2022/03/31 11:26:00;;;;;;;13.68;8.35;;;12.30;99.90;;;;;;5048952;28;20033;-71
2022/03/31 11:28:31;;;;;;;12.68;8.00;;;12.40;99.90;;;;;;5052088;28;20052;-70
2022/03/31 11:30:59;;;;;;;13.65;7.90;;;12.40;99.90;;;;;;5051217;28;20037;-70
2022/03/31 11:33:35;;;;;;;12.75;8.43;;;12.50;99.90;;;;;;5055915;28;20506;-71
2022/03/31 11:36:00;;;;;;;14.88;8.60;;;12.50;99.90;;;;;;5051474;28;20051;-71
2022/03/31 11:38:27;;;;;;;14.73;8.35;;;12.50;99.90;;;;;;5053065;28;20049;-70
2022/03/31 11:40:52;;;;;;;13.82;7.78;;;12.50;99.90;;;;;;5042545;28;20029;-70
2022/03/31 11:43:20;;;;;;;12.95;8.25;;;12.40;99.90;;;;;;5019260;28;20398;-70
2022/03/31 11:45:48;;;;;;;11.45;7.85;;;12.30;99.90;;;;;;5052526;28;20032;-70
2022/03/31 11:48:20;;;;;;;15.15;8.07;;;12.20;99.90;;;;;;5053435;28;20047;-70
2022/03/31 11:50:56;;;;;;;;;;;12.20;99.90;;;;;;5054058;28;20029;-70
2022/03/31 11:53:40;;;;;;;17.20;8.43;;;12.20;99.90;;;;;;5060105;28;19995;-70
2022/03/31 11:56:21;;;;;;;17.10;7.53;;;12.20;99.90;;;;;;5048928;28;20150;-70
2022/03/31 11:58:49;;;;;;;15.27;7.85;;;12.30;99.90;;;;;;5049186;28;20029;-70
2022/03/31 12:01:17;;;;;;;15.27;7.90;;;12.20;99.90;;;;;;5057440;28;20028;-70
2022/03/31 12:03:44;;;;;;;23.75;8.32;;;12.20;99.90;;;;;;5056449;28;20037;-69
2022/03/31 12:06:10;;;;;;;15.13;8.82;;;12.20;99.90;;;;;;5052875;28;20028;-70
2022/03/31 12:08:38;;;;;;;14.40;8.05;;;12.30;99.90;;;;;;5053400;28;20064;-70
2022/03/31 12:11:05;;;;;;;12.35;7.15;;;12.40;99.90;;;;;;5050592;28;20159;-70
2022/03/31 12:13:31;;;;;;;13.00;7.32;;;12.30;99.90;;;;;;5050984;28;20408;-70
2022/03/31 12:16:08;;;;;;;16.10;7.43;;;12.30;99.90;;;;;;5051534;28;20053;-70
2022/03/31 12:18:35;;;;;;;14.13;7.55;;;12.30;99.90;;;;;;5052124;28;20134;-70
2022/03/31 12:21:06;;;;;;;15.23;8.20;;;12.30;99.90;;;;;;5053129;28;20036;-70
2022/03/31 12:23:32;;;;;;;18.60;8.45;;;12.40;99.90;;;;;;5055767;28;20055;-71
2022/03/31 12:25:58;;;;;;;14.55;7.75;;;12.40;99.90;;;;;;5058838;28;20174;-70
2022/03/31 12:28:24;;;;;;;15.00;9.43;;;12.40;99.90;;;;;;5055806;28;20245;-70
2022/03/31 12:30:56;;;;;;;14.75;8.35;;;12.50;99.90;;;;;;5057290;28;20040;-70
2022/03/31 12:33:31;;;;;;;13.38;8.02;;;12.50;99.90;;;;;;5056752;28;20047;-70
2022/03/31 12:36:02;;;;;;;14.90;7.82;;;12.50;99.90;;;;;;5054960;28;20465;-70
2022/03/31 12:38:48;;;;;;;16.45;7.97;;;12.40;99.90;;;;;;5056205;28;20394;-70
2022/03/31 12:41:21;;;;;;;17.90;8.77;;;12.40;99.90;;;;;;5056697;28;20095;-70
2022/03/31 12:44:15;;;;;;;13.90;8.27;;;12.40;99.90;;;;;;5059775;28;20036;-70
2022/03/31 12:46:45;;;;;;;16.38;8.65;;;12.40;99.90;;;;;;5050782;28;20120;-70